createdAt,value
2019-03-20T00:00:13.837Z,49.80
2019-03-20T00:02:42.407Z,49.80
2019-03-20T00:05:13.977Z,49.80
2019-03-20T00:07:42.743Z,50.10
2019-03-20T00:10:12.052Z,50.00
2019-03-20T00:12:40.344Z,49.90
2019-03-20T00:15:13.410Z,49.90
2019-03-20T00:17:41.732Z,49.80
2019-03-20T00:20:11.505Z,49.70
2019-03-20T00:22:39.813Z,49.70
2019-03-20T00:25:09.343Z,49.70
2019-03-20T00:27:37.721Z,49.70
2019-03-20T00:30:20.190Z,49.80
2019-03-20T00:32:48.564Z,49.70
2019-03-20T00:35:17.866Z,49.90
2019-03-20T00:37:46.135Z,49.90
2019-03-20T00:40:16.523Z,49.70
2019-03-20T00:42:45.139Z,49.60
2019-03-20T00:45:24.041Z,49.90
2019-03-20T00:47:52.351Z,49.70
2019-03-20T00:50:21.240Z,49.70
2019-03-20T00:52:49.550Z,49.70
2019-03-20T00:55:18.578Z,49.70
2019-03-20T00:57:47.492Z,49.70
2019-03-20T01:00:22.983Z,49.70
2019-03-20T01:02:51.623Z,49.60
2019-03-20T01:05:22.864Z,49.70
2019-03-20T01:07:51.473Z,49.70
2019-03-20T01:10:23.931Z,49.60
2019-03-20T01:12:52.221Z,49.70
2019-03-20T01:15:21.010Z,49.60
2019-03-20T01:17:49.405Z,49.80
2019-03-20T01:20:21.952Z,49.60
2019-03-20T01:22:51.889Z,50.20
2019-03-20T01:25:20.216Z,49.30
2019-03-20T01:27:48.510Z,49.20
2019-03-20T01:30:34.778Z,49.70
2019-03-20T01:33:07.623Z,49.60
2019-03-20T01:35:35.934Z,49.50
2019-03-20T01:38:04.529Z,49.60
2019-03-20T01:40:33.146Z,49.60
2019-03-20T01:43:01.734Z,50.30
2019-03-20T01:45:30.029Z,49.60
2019-03-20T01:47:59.871Z,49.60
2019-03-20T01:50:28.178Z,49.60
2019-03-20T01:52:56.897Z,49.60
2019-03-20T01:55:25.265Z,49.70
2019-03-20T01:57:53.846Z,49.30
2019-03-20T02:00:22.165Z,49.00
2019-03-20T02:02:50.454Z,49.50
2019-03-20T02:05:20.591Z,49.40
2019-03-20T02:07:49.211Z,49.50
2019-03-20T02:10:18.198Z,49.50
2019-03-20T02:12:47.812Z,49.40
2019-03-20T02:15:17.522Z,49.60
2019-03-20T02:17:45.806Z,49.50
2019-03-20T02:20:19.074Z,49.50
2019-03-20T02:22:50.539Z,49.60
2019-03-20T02:25:19.123Z,49.60
2019-03-20T02:27:47.427Z,49.60
2019-03-20T02:30:17.158Z,49.50
2019-03-20T02:32:45.542Z,49.60
2019-03-20T02:35:13.858Z,49.60
2019-03-20T02:37:42.159Z,49.50
2019-03-20T02:40:14.827Z,49.50
2019-03-20T02:42:43.162Z,49.60
2019-03-20T02:45:14.452Z,49.50
2019-03-20T02:47:43.045Z,49.60
2019-03-20T02:50:12.173Z,49.70
2019-03-20T02:52:40.508Z,49.80
2019-03-20T02:55:12.678Z,49.80
2019-03-20T02:57:41.283Z,49.80
2019-03-20T03:00:15.879Z,49.70
2019-03-20T03:02:44.239Z,49.80
2019-03-20T03:05:12.991Z,49.80
2019-03-20T03:07:41.292Z,50.00
2019-03-20T03:10:11.410Z,49.90
2019-03-20T03:12:40.030Z,49.90
2019-03-20T03:15:10.139Z,50.00
2019-03-20T03:17:38.510Z,50.10
2019-03-20T03:20:11.661Z,50.00
2019-03-20T03:22:40.305Z,50.10
2019-03-20T03:25:09.650Z,50.10
2019-03-20T03:27:37.951Z,50.00
2019-03-20T03:30:15.239Z,50.00
2019-03-20T03:32:43.616Z,50.70
2019-03-20T03:35:17.071Z,50.00
2019-03-20T03:37:42.669Z,50.10
2019-03-20T03:40:16.069Z,50.00
2019-03-20T03:42:44.379Z,50.10
2019-03-20T03:45:13.968Z,50.10
2019-03-20T03:47:42.288Z,50.00
2019-03-20T03:50:11.231Z,50.10
2019-03-20T03:52:39.811Z,50.10
2019-03-20T03:55:12.579Z,50.20
2019-03-20T03:57:40.953Z,50.20
2019-03-20T04:00:20.422Z,50.20
2019-03-20T04:02:49.116Z,50.50
2019-03-20T04:05:17.494Z,50.30
2019-03-20T04:07:48.629Z,50.40
2019-03-20T04:10:18.570Z,50.40
2019-03-20T04:12:46.885Z,50.30
2019-03-20T04:15:15.772Z,50.30
2019-03-20T04:17:44.377Z,50.50
2019-03-20T04:20:18.009Z,50.50
2019-03-20T04:22:46.293Z,50.60
2019-03-20T04:25:14.602Z,50.40
2019-03-20T04:27:42.894Z,50.60
2019-03-20T04:30:13.311Z,50.50
2019-03-20T04:32:43.247Z,50.50
2019-03-20T04:35:11.847Z,50.50
2019-03-20T04:37:40.526Z,50.50
2019-03-20T04:40:14.431Z,50.60
2019-03-20T04:42:42.716Z,50.70
2019-03-20T04:45:27.585Z,50.70
2019-03-20T04:47:56.248Z,50.90
2019-03-20T04:50:26.596Z,50.80
2019-03-20T04:53:03.720Z,50.80
2019-03-20T04:55:35.562Z,50.90
2019-03-20T04:58:06.087Z,50.90
2019-03-20T05:00:36.614Z,50.80
2019-03-20T05:03:08.576Z,50.90
2019-03-20T05:05:38.465Z,50.80
2019-03-20T05:08:11.537Z,50.90
2019-03-20T05:10:44.499Z,50.80
2019-03-20T05:13:14.999Z,50.90
2019-03-20T05:15:43.279Z,50.80
2019-03-20T05:18:11.701Z,51.00
2019-03-20T05:20:40.234Z,50.90
2019-03-20T05:23:08.605Z,50.90
2019-03-20T05:25:36.898Z,51.10
2019-03-20T05:28:05.482Z,51.00
2019-03-20T05:30:33.782Z,50.90
2019-03-20T05:33:02.063Z,51.00
2019-03-20T05:35:30.629Z,51.00
2019-03-20T05:37:59.199Z,51.00
2019-03-20T05:40:27.787Z,51.20
2019-03-20T05:42:56.314Z,51.10
2019-03-20T05:45:24.951Z,51.10
2019-03-20T05:47:53.530Z,51.10
2019-03-20T05:50:22.113Z,51.20
2019-03-20T05:52:50.694Z,51.20
2019-03-20T05:55:19.295Z,51.40
2019-03-20T05:57:47.635Z,51.30
2019-03-20T06:00:20.880Z,51.40
2019-03-20T06:02:48.927Z,51.20
2019-03-20T06:05:17.510Z,51.20
2019-03-20T06:07:45.804Z,51.40
2019-03-20T06:10:17.853Z,51.50
2019-03-20T06:12:46.159Z,51.70
2019-03-20T06:15:14.733Z,51.70
2019-03-20T06:17:43.294Z,51.70
2019-03-20T06:20:15.102Z,51.50
2019-03-20T06:22:43.467Z,51.70
2019-03-20T06:25:13.191Z,51.70
2019-03-20T06:27:41.630Z,51.70
2019-03-20T06:30:14.742Z,51.90
2019-03-20T06:32:43.305Z,51.70
2019-03-20T06:35:12.086Z,51.80
2019-03-20T06:37:40.385Z,51.80
2019-03-20T06:40:11.615Z,51.90
2019-03-20T06:42:39.903Z,51.90
2019-03-20T06:45:11.748Z,51.90
2019-03-20T06:47:40.115Z,51.80
2019-03-20T06:50:13.814Z,51.90
2019-03-20T06:52:42.107Z,51.80
2019-03-20T06:55:11.042Z,51.90
2019-03-20T06:57:39.328Z,51.90
2019-03-20T07:00:28.234Z,52.00
2019-03-20T07:02:58.030Z,52.20
2019-03-20T07:05:51.112Z,52.00
2019-03-20T07:08:22.351Z,52.00
2019-03-20T07:11:08.371Z,51.90
2019-03-20T07:13:36.674Z,52.00
2019-03-20T07:16:05.223Z,52.00
2019-03-20T07:18:33.518Z,52.00
2019-03-20T07:21:02.157Z,51.90
2019-03-20T07:23:30.443Z,52.00
2019-03-20T07:25:59.022Z,52.10
2019-03-20T07:28:27.305Z,52.10
2019-03-20T07:30:55.631Z,52.20
2019-03-20T07:33:23.992Z,52.30
2019-03-20T07:35:52.329Z,52.30
2019-03-20T07:38:20.965Z,52.30
2019-03-20T07:40:49.300Z,52.30
2019-03-20T07:43:17.609Z,52.40
2019-03-20T07:45:45.882Z,52.30
2019-03-20T07:48:22.158Z,52.30
2019-03-20T07:50:44.555Z,52.30
2019-03-20T07:53:12.847Z,52.30
2019-03-20T07:55:41.412Z,52.30
2019-03-20T07:58:09.711Z,52.20
2019-03-20T08:00:38.099Z,52.30
2019-03-20T08:03:09.443Z,52.30
2019-03-20T08:05:37.999Z,52.30
2019-03-20T08:08:07.785Z,52.30
2019-03-20T08:10:36.458Z,52.10
2019-03-20T08:13:04.734Z,52.30
2019-03-20T08:15:33.371Z,52.20
2019-03-20T08:18:01.693Z,52.20
2019-03-20T08:20:32.430Z,52.10
2019-03-20T08:23:00.751Z,52.20
2019-03-20T08:25:29.336Z,52.20
2019-03-20T08:27:58.023Z,52.10
2019-03-20T08:30:26.322Z,52.20
2019-03-20T08:32:54.597Z,52.20
2019-03-20T08:35:22.894Z,52.20
2019-03-20T08:37:51.199Z,52.10
2019-03-20T08:40:19.646Z,52.10
2019-03-20T08:42:48.301Z,52.30
2019-03-20T08:45:17.722Z,52.20
2019-03-20T08:47:46.382Z,52.20
2019-03-20T08:50:22.034Z,52.30
2019-03-20T08:52:50.619Z,52.70
2019-03-20T08:55:22.635Z,52.30
2019-03-20T08:57:50.971Z,52.50
2019-03-20T09:00:21.368Z,52.60
2019-03-20T09:02:50.175Z,52.50
2019-03-20T09:05:18.458Z,52.70
2019-03-20T09:07:47.644Z,52.70
2019-03-20T09:10:26.978Z,52.90
2019-03-20T09:12:55.573Z,52.80
2019-03-20T09:15:25.502Z,52.80
2019-03-20T09:17:55.418Z,52.80
2019-03-20T09:20:24.707Z,52.80
2019-03-20T09:22:53.280Z,52.80
2019-03-20T09:25:25.759Z,52.80
2019-03-20T09:27:54.347Z,52.80
2019-03-20T09:30:27.125Z,52.60
2019-03-20T09:32:55.411Z,52.60
2019-03-20T09:35:23.985Z,52.70
2019-03-20T09:37:52.832Z,52.50
2019-03-20T09:40:25.658Z,52.60
2019-03-20T09:42:53.964Z,52.70
2019-03-20T09:45:22.889Z,52.70
2019-03-20T09:47:51.188Z,52.60
2019-03-20T09:50:29.511Z,52.70
2019-03-20T09:52:58.112Z,52.80
2019-03-20T09:55:26.411Z,53.00
2019-03-20T09:57:54.712Z,53.00
2019-03-20T10:00:24.065Z,53.00
2019-03-20T10:02:52.356Z,53.00
2019-03-20T10:05:21.337Z,52.80
2019-03-20T10:07:49.624Z,52.70
2019-03-20T10:10:31.394Z,52.70
2019-03-20T10:12:59.694Z,52.90
2019-03-20T10:15:31.985Z,52.90
2019-03-20T10:18:00.351Z,53.20
2019-03-20T10:20:28.647Z,52.90
2019-03-20T10:22:57.290Z,52.80
2019-03-20T10:25:25.605Z,52.70
2019-03-20T10:27:54.172Z,52.60
2019-03-20T10:30:24.783Z,52.80
2019-03-20T10:32:53.086Z,52.70
2019-03-20T10:35:21.381Z,53.00
2019-03-20T10:37:50.011Z,53.20
2019-03-20T10:40:20.178Z,52.80
2019-03-20T10:42:48.493Z,53.00
2019-03-20T10:45:17.522Z,52.70
2019-03-20T10:47:46.110Z,52.80
2019-03-20T10:50:16.547Z,52.40
2019-03-20T10:52:44.861Z,52.30
2019-03-20T10:55:13.398Z,52.10
2019-03-20T10:57:41.790Z,52.10
2019-03-20T11:00:18.294Z,52.20
2019-03-20T11:02:46.649Z,52.00
2019-03-20T11:05:15.456Z,52.30
2019-03-20T11:07:44.090Z,52.30
2019-03-20T11:10:15.480Z,52.40
2019-03-20T11:12:44.124Z,52.50
2019-03-20T11:15:14.437Z,52.60
2019-03-20T11:17:42.742Z,52.60
2019-03-20T11:20:14.399Z,52.60
2019-03-20T11:22:42.952Z,52.60
2019-03-20T11:25:14.284Z,52.70
2019-03-20T11:27:42.609Z,52.90
2019-03-20T11:30:22.256Z,53.00
2019-03-20T11:32:50.561Z,52.90
2019-03-20T11:35:18.845Z,52.90
2019-03-20T11:37:47.461Z,53.10
2019-03-20T11:40:29.892Z,53.20
2019-03-20T11:42:58.591Z,53.40
2019-03-20T11:45:27.251Z,53.30
2019-03-20T11:47:55.555Z,53.40
2019-03-20T11:50:31.977Z,53.40
2019-03-20T11:53:00.583Z,53.50
2019-03-20T11:55:29.172Z,53.40
2019-03-20T11:57:57.470Z,53.40
2019-03-20T12:00:26.424Z,53.50
2019-03-20T12:02:54.714Z,53.50
2019-03-20T12:05:22.996Z,54.00
2019-03-20T12:07:51.303Z,54.20
2019-03-20T12:10:29.065Z,54.20
2019-03-20T12:12:57.371Z,54.20
2019-03-20T12:15:26.023Z,54.30
2019-03-20T12:17:54.616Z,54.10
2019-03-20T12:20:24.324Z,53.90
2019-03-20T12:22:52.962Z,53.80
2019-03-20T12:25:32.674Z,53.80
2019-03-20T12:28:01.012Z,54.20
2019-03-20T12:30:33.572Z,54.00
2019-03-20T12:33:02.301Z,53.80
2019-03-20T12:35:36.916Z,53.90
2019-03-20T12:38:14.513Z,53.80
2019-03-20T12:40:36.371Z,53.70
2019-03-20T12:43:05.318Z,53.70
2019-03-20T12:45:34.783Z,53.80
2019-03-20T12:48:03.555Z,53.90
2019-03-20T12:50:31.860Z,53.80
2019-03-20T12:53:01.717Z,53.60
2019-03-20T12:55:31.233Z,53.70
2019-03-20T12:57:59.899Z,53.60
2019-03-20T13:00:28.899Z,53.60
2019-03-20T13:02:57.477Z,53.50
2019-03-20T13:05:25.766Z,53.20
2019-03-20T13:07:54.439Z,53.50
2019-03-20T13:10:23.920Z,53.60
2019-03-20T13:12:52.222Z,53.30
2019-03-20T13:15:28.798Z,53.60
2019-03-20T13:17:57.356Z,53.50
2019-03-20T13:20:26.576Z,53.50
2019-03-20T13:23:17.916Z,53.70
2019-03-20T13:25:46.214Z,53.60
2019-03-20T13:28:14.514Z,53.50
2019-03-20T13:30:52.771Z,53.70
2019-03-20T13:33:25.548Z,53.70
2019-03-20T13:35:51.766Z,53.60
2019-03-20T13:38:20.073Z,54.00
2019-03-20T13:40:48.626Z,54.00
2019-03-20T13:43:17.256Z,54.00
2019-03-20T13:45:48.567Z,53.90
2019-03-20T13:48:17.140Z,54.00
2019-03-20T13:50:45.455Z,54.00
2019-03-20T13:53:15.335Z,53.80
2019-03-20T13:55:44.243Z,53.20
2019-03-20T13:58:12.808Z,53.10
2019-03-20T14:00:41.192Z,53.00
2019-03-20T14:03:09.793Z,53.70
2019-03-20T14:05:38.351Z,53.10
2019-03-20T14:08:06.938Z,53.10
2019-03-20T14:10:49.308Z,53.30
2019-03-20T14:13:08.307Z,53.40
2019-03-20T14:15:36.888Z,53.30
2019-03-20T14:18:05.473Z,53.40
2019-03-20T14:20:36.866Z,53.30
2019-03-20T14:23:05.518Z,53.20
2019-03-20T14:25:36.038Z,53.30
2019-03-20T14:28:06.030Z,53.30
2019-03-20T14:30:36.294Z,53.50
2019-03-20T14:33:04.664Z,53.30
2019-03-20T14:35:32.949Z,53.30
2019-03-20T14:38:01.531Z,53.30
2019-03-20T14:40:37.442Z,53.40
2019-03-20T14:43:00.407Z,53.40
2019-03-20T14:45:28.738Z,53.50
2019-03-20T14:47:57.391Z,53.30
2019-03-20T14:50:29.992Z,53.30
2019-03-20T14:52:58.654Z,53.20
2019-03-20T14:55:27.235Z,53.10
2019-03-20T14:57:55.822Z,53.50
2019-03-20T15:00:26.003Z,53.30
2019-03-20T15:02:54.744Z,53.30
2019-03-20T15:05:23.319Z,53.30
2019-03-20T15:07:54.778Z,53.20
2019-03-20T15:10:24.360Z,53.30
2019-03-20T15:12:53.304Z,53.20
2019-03-20T15:15:34.337Z,53.20
2019-03-20T15:18:02.923Z,53.20
2019-03-20T15:20:31.503Z,53.30
2019-03-20T15:23:00.087Z,53.20
2019-03-20T15:25:28.415Z,53.70
2019-03-20T15:27:58.340Z,54.20
2019-03-20T15:30:29.594Z,53.80
2019-03-20T15:32:57.807Z,53.50
2019-03-20T15:35:26.386Z,53.30
2019-03-20T15:37:54.990Z,53.60
2019-03-20T15:40:24.923Z,53.70
2019-03-20T15:42:53.219Z,53.70
2019-03-20T15:45:21.588Z,53.80
2019-03-20T15:47:49.922Z,53.90
2019-03-20T15:50:25.876Z,53.50
2019-03-20T15:52:55.490Z,53.30
2019-03-20T15:55:34.919Z,53.30
2019-03-20T15:58:03.239Z,53.30
2019-03-20T16:00:31.626Z,53.10
2019-03-20T16:03:11.941Z,53.30
2019-03-20T16:05:41.953Z,53.50
2019-03-20T16:08:10.269Z,53.30
2019-03-20T16:10:38.554Z,53.30
2019-03-20T16:13:07.122Z,53.20
2019-03-20T16:15:35.406Z,53.20
2019-03-20T16:18:03.952Z,53.00
2019-03-20T16:20:32.540Z,53.00
2019-03-20T16:23:00.832Z,52.80
2019-03-20T16:25:29.391Z,52.60
2019-03-20T16:28:01.281Z,52.40
2019-03-20T16:30:31.378Z,52.50
2019-03-20T16:32:59.931Z,52.50
2019-03-20T16:35:28.227Z,52.60
2019-03-20T16:37:56.551Z,52.60
2019-03-20T16:40:35.058Z,53.60
2019-03-20T16:43:03.740Z,52.10
2019-03-20T16:45:38.306Z,49.10
2019-03-20T16:48:06.798Z,49.20
2019-03-20T16:50:35.423Z,49.70
2019-03-20T16:53:04.211Z,50.50
2019-03-20T16:55:32.534Z,50.60
2019-03-20T16:58:04.050Z,50.50
2019-03-20T17:00:34.971Z,50.20
2019-03-20T17:03:03.559Z,50.00
2019-03-20T17:05:32.145Z,49.90
2019-03-20T17:08:00.514Z,49.90
2019-03-20T17:10:31.708Z,49.80
2019-03-20T17:13:01.172Z,49.70
2019-03-20T17:15:34.117Z,50.00
2019-03-20T17:18:02.743Z,50.00
2019-03-20T17:20:31.123Z,50.10
2019-03-20T17:22:59.499Z,50.40
2019-03-20T17:25:27.807Z,51.10
2019-03-20T17:27:56.099Z,50.60
2019-03-20T17:30:35.997Z,50.70
2019-03-20T17:33:05.651Z,50.60
2019-03-20T17:35:34.285Z,50.70
2019-03-20T17:38:02.581Z,50.70
2019-03-20T17:40:30.900Z,50.80
2019-03-20T17:42:59.180Z,50.80
2019-03-20T17:45:29.855Z,50.90
2019-03-20T17:47:58.157Z,51.30
2019-03-20T17:50:29.712Z,51.00
2019-03-20T17:52:58.370Z,51.00
2019-03-20T17:55:26.927Z,51.10
2019-03-20T17:57:55.531Z,51.20
2019-03-20T18:00:47.636Z,51.30
2019-03-20T18:03:15.970Z,51.20
2019-03-20T18:05:44.527Z,51.30
2019-03-20T18:08:12.839Z,51.20
2019-03-20T18:10:41.138Z,51.20
2019-03-20T18:13:09.688Z,51.20
2019-03-20T18:15:38.015Z,51.10
2019-03-20T18:18:07.401Z,51.30
2019-03-20T18:20:36.145Z,51.30
2019-03-20T18:23:05.023Z,51.60
2019-03-20T18:25:33.616Z,51.30
2019-03-20T18:28:02.201Z,51.30
2019-03-20T18:30:39.131Z,51.30
2019-03-20T18:33:07.760Z,51.40
2019-03-20T18:35:37.978Z,51.30
2019-03-20T18:38:07.510Z,51.40
2019-03-20T18:40:36.170Z,51.50
2019-03-20T18:43:04.818Z,51.60
2019-03-20T18:45:33.443Z,51.80
2019-03-20T18:48:02.024Z,52.10
2019-03-20T18:50:30.449Z,51.60
2019-03-20T18:52:59.175Z,51.60
2019-03-20T18:55:27.523Z,51.40
2019-03-20T18:57:57.901Z,51.40
2019-03-20T19:00:29.993Z,51.40
2019-03-20T19:03:13.914Z,51.60
2019-03-20T19:05:54.271Z,51.50
2019-03-20T19:08:23.005Z,51.60
2019-03-20T19:10:51.660Z,51.80
2019-03-20T19:13:20.355Z,51.60
2019-03-20T19:15:48.651Z,51.70
2019-03-20T19:18:17.313Z,51.80
2019-03-20T19:20:45.684Z,51.60
2019-03-20T19:23:14.065Z,51.60
2019-03-20T19:25:42.351Z,51.60
2019-03-20T19:28:10.663Z,51.60
2019-03-20T19:30:39.288Z,51.50
2019-03-20T19:33:07.983Z,51.50
2019-03-20T19:35:36.682Z,51.70
2019-03-20T19:38:05.348Z,51.70
2019-03-20T19:40:33.927Z,51.60
2019-03-20T19:43:02.231Z,51.60
2019-03-20T19:45:30.893Z,51.60
2019-03-20T19:47:59.481Z,51.50
2019-03-20T19:50:27.779Z,51.40
2019-03-20T19:52:56.350Z,51.40
2019-03-20T19:55:25.019Z,51.30
2019-03-20T19:57:53.704Z,51.50
2019-03-20T20:00:26.178Z,51.60
2019-03-20T20:02:54.762Z,51.60
2019-03-20T20:05:23.456Z,51.50
2019-03-20T20:07:52.033Z,51.50
2019-03-20T20:10:21.224Z,51.40
2019-03-20T20:12:49.841Z,51.50
2019-03-20T20:15:32.376Z,51.40
2019-03-20T20:18:00.821Z,51.40
2019-03-20T20:20:32.917Z,51.50
2019-03-20T20:23:04.123Z,51.60
2019-03-20T20:25:31.612Z,51.60
2019-03-20T20:28:00.278Z,51.70
2019-03-20T20:30:28.597Z,51.50
2019-03-20T20:32:57.362Z,51.20
2019-03-20T20:35:25.897Z,51.00
2019-03-20T20:37:54.618Z,51.60
2019-03-20T20:40:32.539Z,51.60
2019-03-20T20:43:01.235Z,51.70
2019-03-20T20:45:29.879Z,51.50
2019-03-20T20:47:58.272Z,51.60
2019-03-20T20:50:27.202Z,51.50
2019-03-20T20:52:55.676Z,51.50
2019-03-20T20:55:26.252Z,51.60
2019-03-20T20:57:54.734Z,51.60
2019-03-20T21:00:23.667Z,51.60
2019-03-20T21:02:52.050Z,51.60
2019-03-20T21:05:20.413Z,51.70
2019-03-20T21:07:49.116Z,51.40
2019-03-20T21:10:19.533Z,51.40
2019-03-20T21:12:56.386Z,51.30
2019-03-20T21:15:20.499Z,51.20
2019-03-20T21:18:08.626Z,51.30
2019-03-20T21:20:37.014Z,51.40
2019-03-20T21:23:37.938Z,51.30
2019-03-20T21:26:07.664Z,51.40
2019-03-20T21:28:58.727Z,51.40
2019-03-20T21:31:30.938Z,51.40
2019-03-20T21:34:20.809Z,51.40
2019-03-20T21:36:58.207Z,51.40
2019-03-20T21:39:26.888Z,51.40
2019-03-20T21:42:14.859Z,51.30
2019-03-20T21:45:19.448Z,51.40
2019-03-20T21:47:50.496Z,51.50
2019-03-20T21:50:36.937Z,51.60
2019-03-20T21:53:05.231Z,51.60
2019-03-20T21:56:09.794Z,51.50
2019-03-20T21:58:41.383Z,51.60
2019-03-20T22:01:32.778Z,51.60
2019-03-20T22:04:01.340Z,51.50
2019-03-20T22:06:53.913Z,51.60
2019-03-20T22:09:25.618Z,51.60
2019-03-20T22:12:16.755Z,51.60
2019-03-20T22:14:51.174Z,51.60
2019-03-20T22:17:50.173Z,51.60
2019-03-20T22:20:21.235Z,51.60
2019-03-20T22:23:07.522Z,51.70
2019-03-20T22:26:00.470Z,51.70
2019-03-20T22:28:57.823Z,51.60
2019-03-20T22:31:27.934Z,51.60
2019-03-20T22:34:31.469Z,51.80
2019-03-20T22:37:00.047Z,51.70
2019-03-20T22:39:46.839Z,52.10
2019-03-20T22:42:18.694Z,51.90
2019-03-20T22:44:50.240Z,51.90
2019-03-20T22:47:45.772Z,51.90
2019-03-20T22:50:23.295Z,51.80
2019-03-20T22:53:23.994Z,51.50
2019-03-20T22:55:58.289Z,51.60
2019-03-20T22:58:45.565Z,51.30
2019-03-20T23:01:26.539Z,51.10
2019-03-20T23:04:22.437Z,51.10
2019-03-20T23:06:50.742Z,51.10
2019-03-20T23:09:19.314Z,51.10
2019-03-20T23:11:47.603Z,51.20
2019-03-20T23:14:16.171Z,51.10
2019-03-20T23:16:44.719Z,51.20
2019-03-20T23:19:13.337Z,51.20
2019-03-20T23:21:41.931Z,51.30
2019-03-20T23:24:10.222Z,51.30
2019-03-20T23:26:38.785Z,51.20
2019-03-20T23:29:07.242Z,51.50
2019-03-20T23:31:35.634Z,51.60
2019-03-20T23:34:04.429Z,51.60
2019-03-20T23:36:32.714Z,51.60
2019-03-20T23:39:01.183Z,51.50
2019-03-20T23:41:29.882Z,51.50
2019-03-20T23:43:58.462Z,51.60
2019-03-20T23:46:27.046Z,51.50
2019-03-20T23:49:02.176Z,51.60
2019-03-20T23:51:32.800Z,51.60
2019-03-20T23:54:01.502Z,51.70
2019-03-20T23:56:32.990Z,51.70
2019-03-20T23:59:01.548Z,51.90
